sensor_id;sensor_type;location;lat;lon;timestamp;temperature;humidity
20750;DHT22;10535;50.664;4.564;2022-10-16T00:01:58;14.30;99.90
20750;DHT22;10535;50.664;4.564;2022-10-16T00:04:24;14.20;99.90
20750;DHT22;10535;50.664;4.564;2022-10-16T00:06:49;14.10;99.90
20750;DHT22;10535;50.664;4.564;2022-10-16T00:09:16;14.10;99.90
20750;DHT22;10535;50.664;4.564;2022-10-16T00:11:41;14.10;99.90
20750;DHT22;10535;50.664;4.564;2022-10-16T00:14:11;14.10;99.90
20750;DHT22;10535;50.664;4.564;2022-10-16T00:16:37;14.10;99.90
20750;DHT22;10535;50.664;4.564;2022-10-16T00:19:03;14.10;99.90
20750;DHT22;10535;50.664;4.564;2022-10-16T00:21:30;14.00;99.90
20750;DHT22;10535;50.664;4.564;2022-10-16T00:24:04;14.10;99.90
20750;DHT22;10535;50.664;4.564;2022-10-16T00:26:31;14.10;99.90
20750;DHT22;10535;50.664;4.564;2022-10-16T00:28:58;14.10;99.90
20750;DHT22;10535;50.664;4.564;2022-10-16T00:31:23;13.90;99.90
20750;DHT22;10535;50.664;4.564;2022-10-16T00:33:49;13.80;99.90
20750;DHT22;10535;50.664;4.564;2022-10-16T00:36:18;13.80;99.90
20750;DHT22;10535;50.664;4.564;2022-10-16T00:38:45;13.80;99.90
20750;DHT22;10535;50.664;4.564;2022-10-16T00:41:16;13.80;99.90
20750;DHT22;10535;50.664;4.564;2022-10-16T00:44:03;13.80;99.90
20750;DHT22;10535;50.664;4.564;2022-10-16T00:49:05;13.90;99.90
20750;DHT22;10535;50.664;4.564;2022-10-16T00:51:40;13.80;99.90
20750;DHT22;10535;50.664;4.564;2022-10-16T00:54:19;13.80;99.90
20750;DHT22;10535;50.664;4.564;2022-10-16T00:56:46;13.80;99.90
20750;DHT22;10535;50.664;4.564;2022-10-16T00:59:27;13.80;99.90
20750;DHT22;10535;50.664;4.564;2022-10-16T01:01:54;13.70;99.90
20750;DHT22;10535;50.664;4.564;2022-10-16T01:04:21;13.70;99.90
20750;DHT22;10535;50.664;4.564;2022-10-16T01:10:38;13.60;99.90
20750;DHT22;10535;50.664;4.564;2022-10-16T01:13:08;13.60;99.90
20750;DHT22;10535;50.664;4.564;2022-10-16T01:15:56;13.60;99.90
20750;DHT22;10535;50.664;4.564;2022-10-16T01:18:42;13.50;99.90
20750;DHT22;10535;50.664;4.564;2022-10-16T01:21:16;13.50;99.90
20750;DHT22;10535;50.664;4.564;2022-10-16T01:31:55;13.50;99.90
20750;DHT22;10535;50.664;4.564;2022-10-16T01:34:35;13.50;99.90
20750;DHT22;10535;50.664;4.564;2022-10-16T01:37:07;13.60;99.90
20750;DHT22;10535;50.664;4.564;2022-10-16T01:39:36;13.60;99.90
20750;DHT22;10535;50.664;4.564;2022-10-16T01:42:15;13.60;99.90
20750;DHT22;10535;50.664;4.564;2022-10-16T01:44:43;13.60;99.90
20750;DHT22;10535;50.664;4.564;2022-10-16T01:47:13;13.60;99.90
20750;DHT22;10535;50.664;4.564;2022-10-16T01:49:40;13.70;99.90
20750;DHT22;10535;50.664;4.564;2022-10-16T01:52:13;13.70;99.90
20750;DHT22;10535;50.664;4.564;2022-10-16T01:54:42;13.60;99.90
20750;DHT22;10535;50.664;4.564;2022-10-16T01:57:10;13.60;99.90
20750;DHT22;10535;50.664;4.564;2022-10-16T01:59:44;13.70;99.90
20750;DHT22;10535;50.664;4.564;2022-10-16T02:02:13;13.60;99.90
20750;DHT22;10535;50.664;4.564;2022-10-16T02:04:47;13.80;99.90
20750;DHT22;10535;50.664;4.564;2022-10-16T02:07:14;13.70;99.90
20750;DHT22;10535;50.664;4.564;2022-10-16T02:09:40;13.60;99.90
20750;DHT22;10535;50.664;4.564;2022-10-16T02:12:10;13.70;99.90
20750;DHT22;10535;50.664;4.564;2022-10-16T02:14:39;13.50;99.90
20750;DHT22;10535;50.664;4.564;2022-10-16T02:17:12;13.60;99.90
20750;DHT22;10535;50.664;4.564;2022-10-16T02:19:38;13.60;99.90
20750;DHT22;10535;50.664;4.564;2022-10-16T02:22:07;13.90;99.90
20750;DHT22;10535;50.664;4.564;2022-10-16T02:24:52;13.70;99.90
20750;DHT22;10535;50.664;4.564;2022-10-16T02:32:36;13.60;99.90
20750;DHT22;10535;50.664;4.564;2022-10-16T02:35:02;13.70;99.90
20750;DHT22;10535;50.664;4.564;2022-10-16T02:37:29;13.60;99.90
20750;DHT22;10535;50.664;4.564;2022-10-16T02:39:57;13.50;99.90
20750;DHT22;10535;50.664;4.564;2022-10-16T02:42:29;13.60;99.90
20750;DHT22;10535;50.664;4.564;2022-10-16T02:44:55;13.60;99.90
20750;DHT22;10535;50.664;4.564;2022-10-16T02:47:21;13.50;99.90
20750;DHT22;10535;50.664;4.564;2022-10-16T02:49:46;13.60;99.90
20750;DHT22;10535;50.664;4.564;2022-10-16T02:52:12;13.60;99.90
20750;DHT22;10535;50.664;4.564;2022-10-16T02:54:38;13.60;99.90
20750;DHT22;10535;50.664;4.564;2022-10-16T02:57:03;13.60;99.90
20750;DHT22;10535;50.664;4.564;2022-10-16T02:59:29;13.50;99.90
20750;DHT22;10535;50.664;4.564;2022-10-16T03:01:54;13.40;99.90
20750;DHT22;10535;50.664;4.564;2022-10-16T03:04:20;13.40;99.90
20750;DHT22;10535;50.664;4.564;2022-10-16T03:06:45;13.40;99.90
20750;DHT22;10535;50.664;4.564;2022-10-16T03:09:11;13.50;99.90
20750;DHT22;10535;50.664;4.564;2022-10-16T03:11:36;13.70;99.90
20750;DHT22;10535;50.664;4.564;2022-10-16T03:14:02;13.60;99.90
20750;DHT22;10535;50.664;4.564;2022-10-16T03:16:28;13.50;99.90
20750;DHT22;10535;50.664;4.564;2022-10-16T03:18:53;13.60;99.90
20750;DHT22;10535;50.664;4.564;2022-10-16T03:21:19;13.50;99.90
20750;DHT22;10535;50.664;4.564;2022-10-16T03:23:44;13.50;99.90
20750;DHT22;10535;50.664;4.564;2022-10-16T03:26:10;13.60;99.90
20750;DHT22;10535;50.664;4.564;2022-10-16T03:28:35;13.60;99.90
20750;DHT22;10535;50.664;4.564;2022-10-16T03:31:01;13.60;99.90
20750;DHT22;10535;50.664;4.564;2022-10-16T03:33:27;13.50;99.90
20750;DHT22;10535;50.664;4.564;2022-10-16T03:35:53;13.50;99.90
20750;DHT22;10535;50.664;4.564;2022-10-16T03:38:20;13.50;99.90
20750;DHT22;10535;50.664;4.564;2022-10-16T03:40:45;13.50;99.90
20750;DHT22;10535;50.664;4.564;2022-10-16T03:43:11;13.50;99.90
20750;DHT22;10535;50.664;4.564;2022-10-16T03:45:36;13.40;99.90
20750;DHT22;10535;50.664;4.564;2022-10-16T03:48:02;13.40;99.90
20750;DHT22;10535;50.664;4.564;2022-10-16T03:50:29;13.50;99.90
20750;DHT22;10535;50.664;4.564;2022-10-16T03:52:54;13.50;99.90
20750;DHT22;10535;50.664;4.564;2022-10-16T03:55:20;13.60;99.90
20750;DHT22;10535;50.664;4.564;2022-10-16T03:57:45;13.50;99.90
20750;DHT22;10535;50.664;4.564;2022-10-16T04:00:12;13.50;99.90
20750;DHT22;10535;50.664;4.564;2022-10-16T04:02:38;13.50;99.90
20750;DHT22;10535;50.664;4.564;2022-10-16T04:05:04;13.60;99.90
20750;DHT22;10535;50.664;4.564;2022-10-16T04:07:30;13.60;99.90
20750;DHT22;10535;50.664;4.564;2022-10-16T04:09:55;13.70;99.90
20750;DHT22;10535;50.664;4.564;2022-10-16T04:12:22;13.50;99.90
20750;DHT22;10535;50.664;4.564;2022-10-16T04:14:48;13.50;99.90
20750;DHT22;10535;50.664;4.564;2022-10-16T04:17:13;13.60;99.90
20750;DHT22;10535;50.664;4.564;2022-10-16T04:19:39;13.50;99.90
20750;DHT22;10535;50.664;4.564;2022-10-16T04:22:04;13.60;99.90
20750;DHT22;10535;50.664;4.564;2022-10-16T04:24:30;13.60;99.90
20750;DHT22;10535;50.664;4.564;2022-10-16T04:26:56;13.70;99.90
20750;DHT22;10535;50.664;4.564;2022-10-16T04:29:22;13.70;99.90
20750;DHT22;10535;50.664;4.564;2022-10-16T04:31:47;13.70;99.90
20750;DHT22;10535;50.664;4.564;2022-10-16T04:34:13;13.60;99.90
20750;DHT22;10535;50.664;4.564;2022-10-16T04:36:38;13.60;99.90
20750;DHT22;10535;50.664;4.564;2022-10-16T04:39:04;13.70;99.90
20750;DHT22;10535;50.664;4.564;2022-10-16T04:41:29;13.70;99.90
20750;DHT22;10535;50.664;4.564;2022-10-16T04:43:55;13.50;99.90
20750;DHT22;10535;50.664;4.564;2022-10-16T04:46:20;13.60;99.90
20750;DHT22;10535;50.664;4.564;2022-10-16T04:48:46;13.50;99.90
20750;DHT22;10535;50.664;4.564;2022-10-16T04:51:12;13.50;99.90
20750;DHT22;10535;50.664;4.564;2022-10-16T04:53:37;13.50;99.90
20750;DHT22;10535;50.664;4.564;2022-10-16T04:56:03;13.50;99.90
20750;DHT22;10535;50.664;4.564;2022-10-16T04:58:29;13.40;99.90
20750;DHT22;10535;50.664;4.564;2022-10-16T05:00:54;13.50;99.90
20750;DHT22;10535;50.664;4.564;2022-10-16T05:03:20;13.50;99.90
20750;DHT22;10535;50.664;4.564;2022-10-16T05:05:46;13.50;99.90
20750;DHT22;10535;50.664;4.564;2022-10-16T05:08:13;13.60;99.90
20750;DHT22;10535;50.664;4.564;2022-10-16T05:10:40;13.60;99.90
20750;DHT22;10535;50.664;4.564;2022-10-16T05:13:06;13.70;99.90
20750;DHT22;10535;50.664;4.564;2022-10-16T05:15:33;13.70;99.90
20750;DHT22;10535;50.664;4.564;2022-10-16T05:17:59;13.70;99.90
20750;DHT22;10535;50.664;4.564;2022-10-16T05:20:24;13.70;99.90
20750;DHT22;10535;50.664;4.564;2022-10-16T05:22:50;13.50;99.90
20750;DHT22;10535;50.664;4.564;2022-10-16T05:25:16;13.60;99.90
20750;DHT22;10535;50.664;4.564;2022-10-16T05:27:42;13.60;99.90
20750;DHT22;10535;50.664;4.564;2022-10-16T05:30:08;13.60;99.90
20750;DHT22;10535;50.664;4.564;2022-10-16T05:32:33;13.60;99.90
20750;DHT22;10535;50.664;4.564;2022-10-16T05:34:59;13.60;99.90
20750;DHT22;10535;50.664;4.564;2022-10-16T05:37:27;13.50;99.90
20750;DHT22;10535;50.664;4.564;2022-10-16T05:39:52;13.50;99.90
20750;DHT22;10535;50.664;4.564;2022-10-16T05:42:18;13.40;99.90
20750;DHT22;10535;50.664;4.564;2022-10-16T05:44:44;13.40;99.90
20750;DHT22;10535;50.664;4.564;2022-10-16T05:47:11;13.40;99.90
20750;DHT22;10535;50.664;4.564;2022-10-16T05:49:37;13.50;99.90
20750;DHT22;10535;50.664;4.564;2022-10-16T05:52:03;13.30;99.90
20750;DHT22;10535;50.664;4.564;2022-10-16T05:54:28;13.30;99.90
20750;DHT22;10535;50.664;4.564;2022-10-16T05:56:54;13.20;99.90
20750;DHT22;10535;50.664;4.564;2022-10-16T05:59:19;13.10;99.90
20750;DHT22;10535;50.664;4.564;2022-10-16T06:01:45;13.10;99.90
20750;DHT22;10535;50.664;4.564;2022-10-16T06:04:11;13.20;99.90
20750;DHT22;10535;50.664;4.564;2022-10-16T06:06:37;13.30;99.90
20750;DHT22;10535;50.664;4.564;2022-10-16T06:09:03;13.50;99.90
20750;DHT22;10535;50.664;4.564;2022-10-16T06:11:31;13.30;99.90
20750;DHT22;10535;50.664;4.564;2022-10-16T06:13:58;13.20;99.90
20750;DHT22;10535;50.664;4.564;2022-10-16T06:16:26;13.10;99.90
20750;DHT22;10535;50.664;4.564;2022-10-16T06:18:53;13.20;99.90
20750;DHT22;10535;50.664;4.564;2022-10-16T06:21:21;13.20;99.90
20750;DHT22;10535;50.664;4.564;2022-10-16T06:23:48;13.10;99.90
20750;DHT22;10535;50.664;4.564;2022-10-16T06:26:16;13.10;99.90
20750;DHT22;10535;50.664;4.564;2022-10-16T06:28:42;13.20;99.90
20750;DHT22;10535;50.664;4.564;2022-10-16T06:31:09;13.30;99.90
20750;DHT22;10535;50.664;4.564;2022-10-16T06:33:36;13.30;99.90
20750;DHT22;10535;50.664;4.564;2022-10-16T06:36:07;13.20;99.90
20750;DHT22;10535;50.664;4.564;2022-10-16T06:38:34;13.20;99.90
20750;DHT22;10535;50.664;4.564;2022-10-16T06:41:00;13.10;99.90
20750;DHT22;10535;50.664;4.564;2022-10-16T06:43:28;13.10;99.90
20750;DHT22;10535;50.664;4.564;2022-10-16T06:45:56;13.10;99.90
20750;DHT22;10535;50.664;4.564;2022-10-16T06:48:24;13.20;99.90
20750;DHT22;10535;50.664;4.564;2022-10-16T06:51:10;13.20;99.90
20750;DHT22;10535;50.664;4.564;2022-10-16T06:53:39;13.20;99.90
20750;DHT22;10535;50.664;4.564;2022-10-16T06:56:13;13.30;99.90
20750;DHT22;10535;50.664;4.564;2022-10-16T06:58:38;13.40;99.90
20750;DHT22;10535;50.664;4.564;2022-10-16T07:01:05;13.40;99.90
20750;DHT22;10535;50.664;4.564;2022-10-16T07:03:31;13.50;99.90
20750;DHT22;10535;50.664;4.564;2022-10-16T07:05:57;13.60;99.90
20750;DHT22;10535;50.664;4.564;2022-10-16T07:08:26;13.60;99.90
20750;DHT22;10535;50.664;4.564;2022-10-16T07:10:59;13.60;99.90
20750;DHT22;10535;50.664;4.564;2022-10-16T07:13:25;13.80;99.90
20750;DHT22;10535;50.664;4.564;2022-10-16T07:15:51;13.90;99.90
20750;DHT22;10535;50.664;4.564;2022-10-16T07:18:16;14.00;99.90
20750;DHT22;10535;50.664;4.564;2022-10-16T07:20:42;14.00;99.90
20750;DHT22;10535;50.664;4.564;2022-10-16T07:23:08;14.10;99.90
20750;DHT22;10535;50.664;4.564;2022-10-16T07:25:34;14.10;99.90
20750;DHT22;10535;50.664;4.564;2022-10-16T07:27:59;14.30;99.90
20750;DHT22;10535;50.664;4.564;2022-10-16T07:30:25;14.30;99.90
20750;DHT22;10535;50.664;4.564;2022-10-16T07:32:51;14.30;99.90
20750;DHT22;10535;50.664;4.564;2022-10-16T07:35:28;14.40;99.90
20750;DHT22;10535;50.664;4.564;2022-10-16T07:37:55;14.60;99.90
20750;DHT22;10535;50.664;4.564;2022-10-16T07:40:22;14.60;99.90
20750;DHT22;10535;50.664;4.564;2022-10-16T07:42:48;14.70;99.90
20750;DHT22;10535;50.664;4.564;2022-10-16T07:45:13;14.80;99.90
20750;DHT22;10535;50.664;4.564;2022-10-16T07:47:40;14.80;99.90
20750;DHT22;10535;50.664;4.564;2022-10-16T07:50:07;14.90;99.90
20750;DHT22;10535;50.664;4.564;2022-10-16T07:52:33;15.00;99.90
20750;DHT22;10535;50.664;4.564;2022-10-16T07:54:59;14.90;99.90
20750;DHT22;10535;50.664;4.564;2022-10-16T07:57:26;15.10;99.90
20750;DHT22;10535;50.664;4.564;2022-10-16T07:59:54;15.20;99.90
20750;DHT22;10535;50.664;4.564;2022-10-16T08:02:20;15.20;99.90
20750;DHT22;10535;50.664;4.564;2022-10-16T08:04:49;15.30;99.90
20750;DHT22;10535;50.664;4.564;2022-10-16T08:07:15;15.40;99.90
20750;DHT22;10535;50.664;4.564;2022-10-16T08:09:42;15.50;99.90
20750;DHT22;10535;50.664;4.564;2022-10-16T08:12:14;15.60;99.90
20750;DHT22;10535;50.664;4.564;2022-10-16T08:14:42;15.70;99.90
20750;DHT22;10535;50.664;4.564;2022-10-16T08:17:17;15.70;99.90
20750;DHT22;10535;50.664;4.564;2022-10-16T08:19:47;15.80;99.90
20750;DHT22;10535;50.664;4.564;2022-10-16T08:22:17;15.90;99.90
20750;DHT22;10535;50.664;4.564;2022-10-16T08:24:55;15.90;99.90
20750;DHT22;10535;50.664;4.564;2022-10-16T08:27:30;16.00;99.90
20750;DHT22;10535;50.664;4.564;2022-10-16T08:29:56;16.00;99.90
20750;DHT22;10535;50.664;4.564;2022-10-16T08:32:22;16.00;99.90
20750;DHT22;10535;50.664;4.564;2022-10-16T08:34:53;16.10;99.90
20750;DHT22;10535;50.664;4.564;2022-10-16T08:37:19;16.20;99.90
20750;DHT22;10535;50.664;4.564;2022-10-16T08:39:45;16.20;99.90
20750;DHT22;10535;50.664;4.564;2022-10-16T08:42:20;16.20;99.90
20750;DHT22;10535;50.664;4.564;2022-10-16T08:50:36;16.50;99.90
20750;DHT22;10535;50.664;4.564;2022-10-16T08:53:05;16.50;99.90
20750;DHT22;10535;50.664;4.564;2022-10-16T08:55:46;16.50;99.90
20750;DHT22;10535;50.664;4.564;2022-10-16T08:58:22;16.50;99.90
20750;DHT22;10535;50.664;4.564;2022-10-16T09:01:10;16.60;99.90
20750;DHT22;10535;50.664;4.564;2022-10-16T09:06:52;16.90;99.90
20750;DHT22;10535;50.664;4.564;2022-10-16T09:15:46;16.80;99.90
20750;DHT22;10535;50.664;4.564;2022-10-16T09:18:22;17.00;99.90
20750;DHT22;10535;50.664;4.564;2022-10-16T09:21:08;17.20;99.90
20750;DHT22;10535;50.664;4.564;2022-10-16T09:23:37;17.10;99.90
20750;DHT22;10535;50.664;4.564;2022-10-16T09:26:04;17.20;99.90
20750;DHT22;10535;50.664;4.564;2022-10-16T09:28:31;17.20;99.90
20750;DHT22;10535;50.664;4.564;2022-10-16T09:30:58;17.30;99.90
20750;DHT22;10535;50.664;4.564;2022-10-16T09:33:29;17.50;99.90
20750;DHT22;10535;50.664;4.564;2022-10-16T09:35:56;17.40;99.90
20750;DHT22;10535;50.664;4.564;2022-10-16T09:38:32;17.40;99.90
20750;DHT22;10535;50.664;4.564;2022-10-16T09:41:00;17.50;99.90
20750;DHT22;10535;50.664;4.564;2022-10-16T09:44:15;17.50;99.90
20750;DHT22;10535;50.664;4.564;2022-10-16T09:46:36;17.50;99.90
20750;DHT22;10535;50.664;4.564;2022-10-16T09:49:17;17.50;99.90
20750;DHT22;10535;50.664;4.564;2022-10-16T09:51:44;17.50;99.90
20750;DHT22;10535;50.664;4.564;2022-10-16T09:54:17;17.70;99.90
20750;DHT22;10535;50.664;4.564;2022-10-16T09:56:43;17.80;99.90
20750;DHT22;10535;50.664;4.564;2022-10-16T09:59:17;17.80;99.90
20750;DHT22;10535;50.664;4.564;2022-10-16T10:01:52;17.70;99.90
20750;DHT22;10535;50.664;4.564;2022-10-16T10:04:19;17.80;99.90
20750;DHT22;10535;50.664;4.564;2022-10-16T10:06:52;17.80;99.90
20750;DHT22;10535;50.664;4.564;2022-10-16T10:09:38;17.80;99.90
20750;DHT22;10535;50.664;4.564;2022-10-16T10:12:17;17.70;99.90
20750;DHT22;10535;50.664;4.564;2022-10-16T10:14:47;17.90;99.90
20750;DHT22;10535;50.664;4.564;2022-10-16T10:17:45;18.00;99.90
20750;DHT22;10535;50.664;4.564;2022-10-16T10:20:32;18.00;99.90
20750;DHT22;10535;50.664;4.564;2022-10-16T10:23:00;18.00;99.90
20750;DHT22;10535;50.664;4.564;2022-10-16T10:31:08;18.30;99.90
20750;DHT22;10535;50.664;4.564;2022-10-16T10:36:56;18.40;99.90
20750;DHT22;10535;50.664;4.564;2022-10-16T10:39:43;18.40;99.90
20750;DHT22;10535;50.664;4.564;2022-10-16T10:45:22;18.10;99.90
20750;DHT22;10535;50.664;4.564;2022-10-16T10:51:05;18.20;99.90
20750;DHT22;10535;50.664;4.564;2022-10-16T10:53:54;18.30;99.90
20750;DHT22;10535;50.664;4.564;2022-10-16T10:59:45;18.20;99.90
20750;DHT22;10535;50.664;4.564;2022-10-16T11:05:31;18.50;99.90
20750;DHT22;10535;50.664;4.564;2022-10-16T11:08:01;18.80;99.90
20750;DHT22;10535;50.664;4.564;2022-10-16T11:10:40;19.00;99.90
20750;DHT22;10535;50.664;4.564;2022-10-16T11:13:19;19.10;99.90
20750;DHT22;10535;50.664;4.564;2022-10-16T11:15:48;19.40;99.90
20750;DHT22;10535;50.664;4.564;2022-10-16T11:21:21;20.00;99.90
20750;DHT22;10535;50.664;4.564;2022-10-16T11:24:01;20.20;99.90
20750;DHT22;10535;50.664;4.564;2022-10-16T11:26:35;20.20;99.90
20750;DHT22;10535;50.664;4.564;2022-10-16T11:29:13;20.10;99.90
20750;DHT22;10535;50.664;4.564;2022-10-16T11:31:47;19.90;99.90
20750;DHT22;10535;50.664;4.564;2022-10-16T11:34:28;19.80;99.90
20750;DHT22;10535;50.664;4.564;2022-10-16T11:36:59;19.90;99.90
20750;DHT22;10535;50.664;4.564;2022-10-16T11:39:30;20.20;99.90
20750;DHT22;10535;50.664;4.564;2022-10-16T11:42:11;20.30;99.90
20750;DHT22;10535;50.664;4.564;2022-10-16T11:47:40;20.50;99.90
20750;DHT22;10535;50.664;4.564;2022-10-16T11:50:39;20.60;99.90
20750;DHT22;10535;50.664;4.564;2022-10-16T11:55:54;20.90;99.90
20750;DHT22;10535;50.664;4.564;2022-10-16T12:04:34;20.80;99.90
20750;DHT22;10535;50.664;4.564;2022-10-16T12:07:40;21.00;99.90
20750;DHT22;10535;50.664;4.564;2022-10-16T12:10:29;21.30;99.90
20750;DHT22;10535;50.664;4.564;2022-10-16T12:12:58;21.40;99.90
20750;DHT22;10535;50.664;4.564;2022-10-16T12:15:47;21.60;99.90
20750;DHT22;10535;50.664;4.564;2022-10-16T12:18:43;21.30;99.90
20750;DHT22;10535;50.664;4.564;2022-10-16T12:21:47;21.40;99.90
20750;DHT22;10535;50.664;4.564;2022-10-16T12:24:42;21.50;99.90
20750;DHT22;10535;50.664;4.564;2022-10-16T12:27:44;21.60;99.90
20750;DHT22;10535;50.664;4.564;2022-10-16T12:30:24;21.50;99.90
20750;DHT22;10535;50.664;4.564;2022-10-16T12:33:28;21.50;99.90
20750;DHT22;10535;50.664;4.564;2022-10-16T12:36:09;21.50;99.90
20750;DHT22;10535;50.664;4.564;2022-10-16T12:38:53;21.50;99.90
20750;DHT22;10535;50.664;4.564;2022-10-16T12:41:28;21.70;99.90
20750;DHT22;10535;50.664;4.564;2022-10-16T12:43:56;21.60;99.90
20750;DHT22;10535;50.664;4.564;2022-10-16T12:46:37;21.20;99.90
20750;DHT22;10535;50.664;4.564;2022-10-16T12:51:49;20.90;99.90
20750;DHT22;10535;50.664;4.564;2022-10-16T12:54:37;20.70;99.90
20750;DHT22;10535;50.664;4.564;2022-10-16T12:58:02;20.90;99.90
20750;DHT22;10535;50.664;4.564;2022-10-16T13:00:57;21.20;99.90
20750;DHT22;10535;50.664;4.564;2022-10-16T13:06:53;21.30;99.90
20750;DHT22;10535;50.664;4.564;2022-10-16T13:15:58;21.20;99.90
20750;DHT22;10535;50.664;4.564;2022-10-16T13:30:28;20.40;99.90
20750;DHT22;10535;50.664;4.564;2022-10-16T13:35:53;20.70;99.90
20750;DHT22;10535;50.664;4.564;2022-10-16T13:38:22;20.70;99.90
20750;DHT22;10535;50.664;4.564;2022-10-16T13:41:25;20.60;99.90
20750;DHT22;10535;50.664;4.564;2022-10-16T13:43:52;20.70;99.90
20750;DHT22;10535;50.664;4.564;2022-10-16T13:46:21;20.90;99.90
20750;DHT22;10535;50.664;4.564;2022-10-16T13:51:27;20.80;99.90
20750;DHT22;10535;50.664;4.564;2022-10-16T13:53:58;20.60;99.90
20750;DHT22;10535;50.664;4.564;2022-10-16T13:56:32;20.60;99.90
20750;DHT22;10535;50.664;4.564;2022-10-16T13:59:03;20.60;99.90
20750;DHT22;10535;50.664;4.564;2022-10-16T14:04:05;20.70;99.90
20750;DHT22;10535;50.664;4.564;2022-10-16T14:06:32;20.80;99.90
20750;DHT22;10535;50.664;4.564;2022-10-16T14:09:29;20.60;99.90
20750;DHT22;10535;50.664;4.564;2022-10-16T14:12:09;20.60;99.90
20750;DHT22;10535;50.664;4.564;2022-10-16T14:14:46;20.50;99.90
20750;DHT22;10535;50.664;4.564;2022-10-16T14:17:19;20.40;99.90
20750;DHT22;10535;50.664;4.564;2022-10-16T14:19:48;20.40;99.90
20750;DHT22;10535;50.664;4.564;2022-10-16T14:22:42;20.40;99.90
20750;DHT22;10535;50.664;4.564;2022-10-16T14:25:23;20.40;99.90
20750;DHT22;10535;50.664;4.564;2022-10-16T14:28:00;20.40;99.90
20750;DHT22;10535;50.664;4.564;2022-10-16T14:30:31;20.50;99.90
20750;DHT22;10535;50.664;4.564;2022-10-16T14:33:04;20.40;99.90
20750;DHT22;10535;50.664;4.564;2022-10-16T14:35:36;20.50;99.90
20750;DHT22;10535;50.664;4.564;2022-10-16T14:38:05;20.60;99.90
20750;DHT22;10535;50.664;4.564;2022-10-16T14:40:36;20.60;99.90
20750;DHT22;10535;50.664;4.564;2022-10-16T14:43:22;20.70;99.90
20750;DHT22;10535;50.664;4.564;2022-10-16T14:45:54;20.70;99.90
20750;DHT22;10535;50.664;4.564;2022-10-16T14:48:23;20.60;99.90
20750;DHT22;10535;50.664;4.564;2022-10-16T14:50:54;20.50;99.90
20750;DHT22;10535;50.664;4.564;2022-10-16T14:53:22;20.40;99.90
20750;DHT22;10535;50.664;4.564;2022-10-16T14:55:49;20.40;99.90
20750;DHT22;10535;50.664;4.564;2022-10-16T14:58:23;20.30;99.90
20750;DHT22;10535;50.664;4.564;2022-10-16T15:00:50;20.50;99.90
20750;DHT22;10535;50.664;4.564;2022-10-16T15:03:17;20.50;99.90
20750;DHT22;10535;50.664;4.564;2022-10-16T15:05:43;20.40;99.90
20750;DHT22;10535;50.664;4.564;2022-10-16T15:08:10;20.20;99.90
20750;DHT22;10535;50.664;4.564;2022-10-16T15:10:40;20.00;99.90
20750;DHT22;10535;50.664;4.564;2022-10-16T15:13:08;19.70;99.90
20750;DHT22;10535;50.664;4.564;2022-10-16T15:15:46;19.70;99.90
20750;DHT22;10535;50.664;4.564;2022-10-16T15:18:12;19.70;99.90
20750;DHT22;10535;50.664;4.564;2022-10-16T15:20:40;19.60;99.90
20750;DHT22;10535;50.664;4.564;2022-10-16T15:23:19;19.50;99.90
20750;DHT22;10535;50.664;4.564;2022-10-16T15:25:56;19.50;99.90
20750;DHT22;10535;50.664;4.564;2022-10-16T15:28:31;19.50;99.90
20750;DHT22;10535;50.664;4.564;2022-10-16T15:30:58;19.50;99.90
20750;DHT22;10535;50.664;4.564;2022-10-16T15:33:27;19.30;99.90
20750;DHT22;10535;50.664;4.564;2022-10-16T15:36:00;19.20;99.90
20750;DHT22;10535;50.664;4.564;2022-10-16T15:38:27;19.20;99.90
20750;DHT22;10535;50.664;4.564;2022-10-16T15:40:58;19.30;99.90
20750;DHT22;10535;50.664;4.564;2022-10-16T15:43:25;19.10;99.90
20750;DHT22;10535;50.664;4.564;2022-10-16T15:46:05;19.10;99.90
20750;DHT22;10535;50.664;4.564;2022-10-16T15:48:33;19.10;99.90
20750;DHT22;10535;50.664;4.564;2022-10-16T15:51:15;19.00;99.90
20750;DHT22;10535;50.664;4.564;2022-10-16T15:53:43;18.90;99.90
20750;DHT22;10535;50.664;4.564;2022-10-16T15:56:14;18.90;99.90
20750;DHT22;10535;50.664;4.564;2022-10-16T15:58:41;18.70;99.90
20750;DHT22;10535;50.664;4.564;2022-10-16T16:01:10;18.60;99.90
20750;DHT22;10535;50.664;4.564;2022-10-16T16:03:44;18.60;99.90
20750;DHT22;10535;50.664;4.564;2022-10-16T16:06:12;18.70;99.90
20750;DHT22;10535;50.664;4.564;2022-10-16T16:08:40;18.50;99.90
20750;DHT22;10535;50.664;4.564;2022-10-16T16:11:10;18.50;99.90
20750;DHT22;10535;50.664;4.564;2022-10-16T16:13:36;18.40;99.90
20750;DHT22;10535;50.664;4.564;2022-10-16T16:16:08;18.40;99.90
20750;DHT22;10535;50.664;4.564;2022-10-16T16:18:54;18.50;99.90
20750;DHT22;10535;50.664;4.564;2022-10-16T16:21:21;18.40;99.90
20750;DHT22;10535;50.664;4.564;2022-10-16T16:23:48;18.40;99.90
20750;DHT22;10535;50.664;4.564;2022-10-16T16:26:28;18.40;99.90
20750;DHT22;10535;50.664;4.564;2022-10-16T16:29:13;18.40;99.90
20750;DHT22;10535;50.664;4.564;2022-10-16T16:31:40;18.40;99.90
20750;DHT22;10535;50.664;4.564;2022-10-16T16:34:08;18.40;99.90
20750;DHT22;10535;50.664;4.564;2022-10-16T16:36:34;18.50;99.90
20750;DHT22;10535;50.664;4.564;2022-10-16T16:39:03;18.60;99.90
20750;DHT22;10535;50.664;4.564;2022-10-16T16:41:31;18.60;99.90
20750;DHT22;10535;50.664;4.564;2022-10-16T16:44:08;18.40;99.90
20750;DHT22;10535;50.664;4.564;2022-10-16T16:46:34;18.30;99.90
20750;DHT22;10535;50.664;4.564;2022-10-16T16:49:02;18.30;99.90
20750;DHT22;10535;50.664;4.564;2022-10-16T16:51:32;18.20;99.90
20750;DHT22;10535;50.664;4.564;2022-10-16T16:53:59;18.20;99.90
20750;DHT22;10535;50.664;4.564;2022-10-16T16:56:25;18.10;99.90
20750;DHT22;10535;50.664;4.564;2022-10-16T16:58:54;18.20;99.90
20750;DHT22;10535;50.664;4.564;2022-10-16T17:01:30;18.20;99.90
20750;DHT22;10535;50.664;4.564;2022-10-16T17:03:57;18.20;99.90
20750;DHT22;10535;50.664;4.564;2022-10-16T17:06:26;18.20;99.90
20750;DHT22;10535;50.664;4.564;2022-10-16T17:08:52;18.10;99.90
20750;DHT22;10535;50.664;4.564;2022-10-16T17:11:24;18.00;99.90
20750;DHT22;10535;50.664;4.564;2022-10-16T17:13:54;18.00;99.90
20750;DHT22;10535;50.664;4.564;2022-10-16T17:16:22;17.90;99.90
20750;DHT22;10535;50.664;4.564;2022-10-16T17:18:50;17.90;99.90
20750;DHT22;10535;50.664;4.564;2022-10-16T17:21:17;17.90;99.90
20750;DHT22;10535;50.664;4.564;2022-10-16T17:23:43;17.80;99.90
20750;DHT22;10535;50.664;4.564;2022-10-16T17:26:13;17.90;99.90
20750;DHT22;10535;50.664;4.564;2022-10-16T17:28:40;17.70;99.90
20750;DHT22;10535;50.664;4.564;2022-10-16T17:31:10;17.60;99.90
20750;DHT22;10535;50.664;4.564;2022-10-16T17:33:36;17.80;99.90
20750;DHT22;10535;50.664;4.564;2022-10-16T17:36:04;17.60;99.90
20750;DHT22;10535;50.664;4.564;2022-10-16T17:38:29;17.60;99.90